Time;durP1;ratioP1;P1;durP2;ratioP2;P2;SDS_P1;SDS_P2;PMS_P1;PMS_P2;Temp;Humidity;BMP_temperature;BMP_pressure;BME280_temperature;BME280_humidity;BME280_pressure;Samples;Min_cycle;Max_cycle;Signal;HPM_P1;HPM_P2
2021/07/09 00:01:53;;;;;;;;;7.00;6.75;;;;;23.06;46.52;101712.53;5079059;27;47496;-51
2021/07/09 00:04:20;;;;;;;;;5.25;4.25;;;;;23.04;46.38;101711.75;5079243;27;45374;-50
2021/07/09 00:06:46;;;;;;;;;5.00;5.00;;;;;23.00;46.61;101713.75;5078694;27;45469;-49
2021/07/09 00:09:12;;;;;;;;;6.50;6.00;;;;;22.98;46.84;101714.78;5079264;27;45520;-50
2021/07/09 00:11:39;;;;;;;;;4.67;4.67;;;;;22.95;46.61;101713.13;5079001;27;47440;-49
2021/07/09 00:14:07;;;;;;;;;6.00;6.00;;;;;22.91;46.91;101711.56;5079246;28;45585;-52
2021/07/09 00:16:33;;;;;;;;;5.67;4.33;;;;;22.87;47.19;101713.59;5060813;27;45491;-47
2021/07/09 00:18:59;;;;;;;;;7.00;6.00;;;;;22.86;47.29;101716.34;5079604;27;45415;-50
2021/07/09 00:21:28;;;;;;;;;6.33;5.00;;;;;22.84;47.43;101712.88;5078833;27;48102;-48
2021/07/09 00:23:54;;;;;;;;;6.00;5.00;;;;;22.82;47.08;101717.47;5060837;28;45327;-49
2021/07/09 00:26:19;;;;;;;;;6.25;6.25;;;;;22.80;46.95;101714.00;5060832;27;45359;-53
2021/07/09 00:28:44;;;;;;;;;6.33;6.33;;;;;22.78;47.57;101714.06;5078808;27;45250;-48
2021/07/09 00:31:10;;;;;;;;;5.67;5.67;;;;;22.77;47.69;101712.34;5078012;28;46892;-53
2021/07/09 00:33:36;;;;;;;;;8.00;7.33;;;;;22.77;47.65;101706.06;5079306;27;45302;-48
2021/07/09 00:36:02;;;;;;;;;5.00;5.00;;;;;22.77;47.50;101704.22;5060584;28;45683;-49
2021/07/09 00:38:27;;;;;;;;;7.00;7.00;;;;;22.77;47.74;101703.34;5078862;27;45428;-48
2021/07/09 00:40:53;;;;;;;;;6.00;6.00;;;;;22.72;48.14;101708.13;5078393;27;45292;-48
2021/07/09 00:43:19;;;;;;;;;7.33;7.33;;;;;22.68;47.77;101712.84;5079531;27;45373;-50
2021/07/09 00:45:45;;;;;;;;;7.25;6.50;;;;;22.63;47.64;101712.25;5058106;27;45406;-48
2021/07/09 00:48:10;;;;;;;;;7.67;7.67;;;;;22.57;48.00;101713.44;5077393;27;45523;-49
2021/07/09 00:50:36;;;;;;;;;6.00;6.00;;;;;22.56;48.42;101718.94;5079022;27;45930;-52
2021/07/09 00:53:02;;;;;;;;;8.67;7.67;;;;;22.57;48.32;101717.97;5080344;27;45475;-50
2021/07/09 00:55:28;;;;;;;;;6.25;6.25;;;;;22.57;47.99;101723.41;5082921;27;45329;-49
2021/07/09 00:57:53;;;;;;;;;8.50;8.50;;;;;22.56;48.06;101711.69;5064498;28;45683;-48
2021/07/09 01:00:21;;;;;;;;;6.00;6.00;;;;;22.57;48.25;101712.56;5061977;27;48319;-50
2021/07/09 01:02:47;;;;;;;;;6.25;6.25;;;;;22.57;48.62;101716.16;5082310;27;45328;-48
2021/07/09 01:05:15;;;;;;;;;6.50;6.50;;;;;22.56;48.56;101722.53;5063776;27;45536;-50
2021/07/09 01:07:41;;;;;;;;;6.25;6.25;;;;;22.58;48.43;101722.44;5061118;28;45371;-49
2021/07/09 01:10:15;;;;;;;;;5.75;5.50;;;;;22.55;48.64;101719.91;5081380;27;47476;-46
2021/07/09 01:12:41;;;;;;;;;5.75;5.75;;;;;22.53;48.45;101724.53;5046762;27;45426;-50
2021/07/09 01:15:09;;;;;;;;;6.75;6.75;;;;;22.52;48.61;101723.66;5064094;27;45454;-51
2021/07/09 01:17:37;;;;;;;;;5.33;5.33;;;;;22.52;48.21;101722.78;5064417;27;45412;-51
2021/07/09 01:20:05;;;;;;;;;5.00;5.00;;;;;22.48;48.39;101722.06;5063790;28;47559;-47
2021/07/09 01:22:31;;;;;;;;;6.33;6.33;;;;;22.47;48.46;101722.16;5082141;27;45802;-49
2021/07/09 01:24:57;;;;;;;;;5.75;5.75;;;;;22.44;48.49;101720.50;5027113;28;45433;-51
2021/07/09 01:27:23;;;;;;;;;7.00;7.00;;;;;22.38;48.53;101720.84;5058298;27;45449;-48
2021/07/09 01:29:52;;;;;;;;;7.00;7.00;;;;;22.33;48.70;101729.19;5067355;28;46172;-51
2021/07/09 01:32:18;;;;;;;;;7.00;7.00;;;;;22.32;49.18;101727.47;5070025;27;45389;-49
2021/07/09 01:34:43;;;;;;;;;5.00;5.00;;;;;22.32;48.88;101732.88;5081597;27;45299;-51
2021/07/09 01:37:14;;;;;;;;;7.00;6.00;;;;;22.31;49.53;101731.13;5080927;27;45570;-49
2021/07/09 01:39:41;;;;;;;;;5.00;5.00;;;;;22.32;49.41;101732.88;5081679;27;46425;-49
2021/07/09 01:42:07;;;;;;;;;7.00;7.00;;;;;22.35;49.01;101728.25;5082019;27;45632;-47
2021/07/09 01:44:35;;;;;;;;;7.25;6.25;;;;;22.36;49.15;101736.28;5064280;28;45382;-51
2021/07/09 01:47:01;;;;;;;;;7.00;7.00;;;;;22.37;49.09;101726.34;5061649;27;45611;-46
2021/07/09 01:49:27;;;;;;;;;6.00;6.00;;;;;22.35;49.43;101726.41;5063440;28;46776;-50
2021/07/09 01:51:54;;;;;;;;;6.67;6.67;;;;;22.34;49.64;101730.06;5079312;27;45814;-47
2021/07/09 01:54:19;;;;;;;;;7.33;6.00;;;;;22.33;49.60;101729.19;5081562;27;45318;-49
2021/07/09 01:56:45;;;;;;;;;5.33;5.33;;;;;22.31;49.30;101725.72;5063027;27;45437;-50
2021/07/09 01:59:10;;;;;;;;;8.67;8.67;;;;;22.31;49.47;101724.84;5063356;28;47222;-51
2021/07/09 02:01:35;;;;;;;;;6.00;6.00;;;;;22.31;49.71;101716.72;5081305;27;45545;-48
2021/07/09 02:04:01;;;;;;;;;6.00;6.00;;;;;22.33;49.73;101717.50;5062828;28;45703;-49
2021/07/09 02:06:27;;;;;;;;;7.00;7.00;;;;;22.32;49.91;101716.63;5091135;27;45504;-51
2021/07/09 02:08:52;;;;;;;;;7.00;7.00;;;;;22.30;49.67;101715.84;5080722;27;47517;-48
2021/07/09 02:11:18;;;;;;;;;6.00;5.00;;;;;22.30;50.11;101720.38;5081136;27;45514;-47
2021/07/09 02:13:43;;;;;;;;;6.33;6.33;;;;;22.28;50.02;101715.06;5081911;27;45494;-47
2021/07/09 02:16:09;;;;;;;;;7.00;6.50;;;;;22.27;50.23;101716.03;5081421;27;45460;-50
2021/07/09 02:18:34;;;;;;;;;6.67;6.67;;;;;22.26;50.17;101710.72;5080782;27;46854;-47
2021/07/09 02:21:00;;;;;;;;;6.00;6.00;;;;;22.25;49.72;101712.53;5062628;27;45358;-47
2021/07/09 02:23:25;;;;;;;;;8.00;7.00;;;;;22.24;49.72;101715.34;5081395;28;45676;-48
2021/07/09 02:25:51;;;;;;;;;6.33;6.00;;;;;22.19;50.20;101710.16;5081147;27;45369;-48
2021/07/09 02:28:16;;;;;;;;;7.00;7.00;;;;;22.16;50.18;101710.31;5080749;27;45415;-50
2021/07/09 02:30:42;;;;;;;;;7.33;7.00;;;;;22.15;50.08;101702.31;5079839;27;45373;-48
2021/07/09 02:33:08;;;;;;;;;6.67;6.67;;;;;22.13;50.20;101702.38;5081298;27;45515;-47
2021/07/09 02:35:38;;;;;;;;;6.00;5.67;;;;;22.07;50.42;101702.72;5059748;28;45856;-48
2021/07/09 02:38:06;;;;;;;;;7.67;7.67;;;;;22.04;50.16;101708.25;5061755;28;47611;-47
2021/07/09 02:40:32;;;;;;;;;7.00;6.67;;;;;22.02;50.62;101702.94;5080279;27;45479;-51
2021/07/09 02:43:00;;;;;;;;;7.67;7.67;;;;;22.01;50.12;101700.31;5046368;28;45484;-49
2021/07/09 02:45:26;;;;;;;;;8.00;8.00;;;;;21.99;50.69;101703.09;5059398;27;45520;-49
2021/07/09 02:47:52;;;;;;;;;8.67;7.00;;;;;22.01;50.75;101703.88;5061130;28;47811;-50
2021/07/09 02:50:21;;;;;;;;;6.33;6.33;;;;;22.02;50.78;101704.75;5080423;27;45519;-49
2021/07/09 02:52:46;;;;;;;;;8.33;8.00;;;;;22.02;50.56;101699.34;5062040;28;45386;-50
2021/07/09 02:55:13;;;;;;;;;5.00;5.00;;;;;21.99;50.48;101700.41;5080561;27;45635;-49
2021/07/09 02:57:41;;;;;;;;;7.67;7.67;;;;;21.97;50.68;101702.28;5062533;28;46941;-50
2021/07/09 03:00:10;;;;;;;;;8.33;8.00;;;;;21.95;50.84;101696.09;5062509;28;45279;-48
2021/07/09 03:02:36;;;;;;;;;8.00;7.00;;;;;21.93;50.94;101694.44;5052754;28;45464;-51
2021/07/09 03:05:03;;;;;;;;;7.00;7.00;;;;;21.92;51.33;101693.56;5080916;27;45391;-50
2021/07/09 03:07:28;;;;;;;;;7.00;7.00;;;;;21.90;50.84;101687.38;5062187;28;46835;-51
2021/07/09 03:09:54;;;;;;;;;8.00;8.00;;;;;21.89;50.83;101695.56;5083914;27;45365;-47
2021/07/09 03:12:19;;;;;;;;;7.00;6.00;;;;;21.87;51.27;101689.38;5062533;28;45635;-47
2021/07/09 03:14:45;;;;;;;;;5.67;5.67;;;;;21.83;51.57;101693.19;5061459;28;45449;-49
2021/07/09 03:17:10;;;;;;;;;6.33;6.00;;;;;21.81;51.67;101695.09;5080397;27;47283;-47
2021/07/09 03:19:36;;;;;;;;;7.75;7.75;;;;;21.77;51.49;101694.38;5062132;27;45356;-47
2021/07/09 03:22:02;;;;;;;;;8.00;7.00;;;;;21.75;51.76;101693.59;5080050;27;45276;-50
2021/07/09 03:24:27;;;;;;;;;5.33;5.33;;;;;21.74;51.88;101692.72;5062269;27;45550;-47
2021/07/09 03:26:53;;;;;;;;;9.00;7.33;;;;;21.74;51.74;101691.84;5061895;28;47852;-48
2021/07/09 03:29:18;;;;;;;;;8.00;6.00;;;;;21.72;52.05;101693.72;5059664;28;46669;-48
2021/07/09 03:31:44;;;;;;;;;4.33;4.33;;;;;21.70;51.77;101684.84;5079417;27;45399;-48
2021/07/09 03:34:10;;;;;;;;;10.00;8.67;;;;;21.68;52.05;101675.94;5062252;28;45573;-51
2021/07/09 03:36:38;;;;;;;;;7.33;7.33;;;;;21.65;51.62;101670.72;5079711;27;48224;-48
2021/07/09 03:39:05;;;;;;;;;6.00;4.67;;;;;21.61;52.13;101672.72;5078570;27;45514;-50
2021/07/09 03:41:30;;;;;;;;;9.00;7.00;;;;;21.58;51.90;101671.97;5061926;28;45778;-50
2021/07/09 03:43:56;;;;;;;;;7.67;6.33;;;;;21.54;52.06;101676.69;5062282;27;45352;-48
2021/07/09 03:46:21;;;;;;;;;6.00;6.00;;;;;21.52;51.74;101681.28;5076561;27;47002;-46
2021/07/09 03:48:47;;;;;;;;;10.33;7.67;;;;;21.51;51.98;101689.47;5079172;27;45425;-52
2021/07/09 03:51:13;;;;;;;;;10.33;8.00;;;;;21.48;52.13;101692.34;5062501;28;45540;-47
2021/07/09 03:53:39;;;;;;;;;9.00;7.67;;;;;21.42;52.49;101694.38;5079797;27;45601;-49
2021/07/09 03:56:04;;;;;;;;;9.00;8.33;;;;;21.40;52.33;101690.91;5062343;28;47853;-46
2021/07/09 03:58:32;;;;;;;;;9.67;7.67;;;;;21.38;52.58;101684.72;5080205;27;45373;-48
2021/07/09 04:00:57;;;;;;;;;6.00;6.00;;;;;21.39;52.49;101690.97;5080019;27;45680;-46
2021/07/09 04:03:23;;;;;;;;;7.00;7.00;;;;;21.36;52.83;101696.56;5080598;27;45621;-50
2021/07/09 04:05:48;;;;;;;;;5.67;5.67;;;;;21.33;52.96;101702.09;5079997;27;47437;-49
2021/07/09 04:08:14;;;;;;;;;11.00;9.67;;;;;21.31;52.72;101701.28;5079519;27;45285;-50
2021/07/09 04:10:39;;;;;;;;;6.00;6.00;;;;;21.28;52.85;101688.81;5057901;28;45354;-48
2021/07/09 04:13:05;;;;;;;;;7.67;7.67;;;;;21.28;53.33;101693.34;5076119;28;45475;-47
2021/07/09 04:15:30;;;;;;;;;9.00;8.67;;;;;21.28;52.94;101690.66;5079467;27;46956;-50
2021/07/09 04:17:56;;;;;;;;;8.67;8.67;;;;;21.24;52.89;101692.63;5079441;27;45540;-48
2021/07/09 04:20:21;;;;;;;;;9.00;9.00;;;;;21.24;53.01;101694.44;5079469;27;45248;-47
2021/07/09 04:22:47;;;;;;;;;9.00;8.67;;;;;21.25;53.42;101699.78;5079749;27;45342;-51
2021/07/09 04:25:12;;;;;;;;;7.50;7.25;;;;;21.25;53.54;101693.47;5057931;28;48083;-48
2021/07/09 04:27:39;;;;;;;;;12.67;10.67;;;;;21.23;53.45;101701.66;5076237;27;45290;-49
2021/07/09 04:30:08;;;;;;;;;9.00;8.00;;;;;21.25;53.82;101690.78;5079627;27;45378;-51
2021/07/09 04:32:33;;;;;;;;;11.00;10.00;;;;;21.27;53.60;101691.59;5078495;27;45463;-49
2021/07/09 04:34:59;;;;;;;;;7.33;7.00;;;;;21.29;53.44;101687.88;5079548;27;46304;-47
2021/07/09 04:37:24;;;;;;;;;11.67;10.67;;;;;21.34;53.77;101695.72;5079144;27;45345;-49
2021/07/09 04:39:50;;;;;;;;;10.67;9.00;;;;;21.37;53.01;101693.75;5079847;27;45287;-52
2021/07/09 04:42:15;;;;;;;;;10.00;8.67;;;;;21.41;53.53;101699.88;5080306;27;45420;-46
2021/07/09 04:44:41;;;;;;;;;8.67;8.67;;;;;21.44;52.95;101705.09;5061960;28;47060;-48
2021/07/09 04:47:07;;;;;;;;;8.00;8.00;;;;;21.48;53.74;101704.03;5058622;27;46035;-52
2021/07/09 04:49:33;;;;;;;;;8.33;8.33;;;;;21.51;53.67;101702.97;5045213;28;45503;-50
2021/07/09 04:51:59;;;;;;;;;9.00;9.00;;;;;21.50;53.14;101707.50;5079650;27;45835;-49
2021/07/09 04:54:24;;;;;;;;;8.33;8.33;;;;;21.50;53.08;101706.63;5079344;28;45513;-49
2021/07/09 04:56:50;;;;;;;;;9.00;8.00;;;;;21.48;52.87;101705.84;5060641;28;45343;-48
2021/07/09 04:59:15;;;;;;;;;11.33;10.00;;;;;21.47;53.48;101702.28;5079817;27;45357;-48
2021/07/09 05:01:41;;;;;;;;;10.67;10.67;;;;;21.48;53.45;101705.84;5076784;28;45465;-49
2021/07/09 05:04:07;;;;;;;;;11.75;10.75;;;;;21.50;53.73;101706.63;5055852;28;45355;-51
2021/07/09 05:06:34;;;;;;;;;9.67;9.67;;;;;21.52;53.67;101704.72;5052754;28;45833;-48
2021/07/09 05:09:01;;;;;;;;;9.00;9.00;;;;;21.55;53.77;101705.44;5072738;28;45452;-46
2021/07/09 05:11:26;;;;;;;;;9.00;9.00;;;;;21.58;53.75;101705.25;5041078;28;45365;-45
2021/07/09 05:13:52;;;;;;;;;10.33;9.67;;;;;21.63;53.54;101705.03;5058415;28;47093;-47
2021/07/09 05:16:19;;;;;;;;;11.33;9.67;;;;;21.65;52.94;101704.00;5040899;28;45347;-50
2021/07/09 05:18:44;;;;;;;;;10.67;10.33;;;;;21.69;52.88;101713.69;5058706;28;45814;-46
2021/07/09 05:21:10;;;;;;;;;10.67;9.00;;;;;21.68;52.92;101711.94;5040518;28;45315;-47
2021/07/09 05:23:35;;;;;;;;;10.75;10.00;;;;;21.71;53.26;101716.31;5058142;28;46863;-49
2021/07/09 05:26:00;;;;;;;;;7.00;7.00;;;;;21.75;53.37;101709.81;5058991;28;45378;-51
2021/07/09 05:28:26;;;;;;;;;14.75;12.50;;;;;21.80;53.38;101713.13;5040596;28;45351;-50
2021/07/09 05:30:52;;;;;;;;;23.50;23.50;;;;;21.83;52.93;101712.09;5059852;28;45904;-48
2021/07/09 05:33:17;;;;;;;;;10.25;10.25;;;;;21.86;53.03;101715.53;5024098;28;46928;-50
2021/07/09 05:35:44;;;;;;;;;12.00;12.00;;;;;21.87;52.64;101709.16;5058214;28;45774;-49
2021/07/09 05:38:11;;;;;;;;;13.00;11.33;;;;;21.91;52.83;101713.44;5065870;28;45516;-52
2021/07/09 05:40:36;;;;;;;;;13.00;12.67;;;;;21.94;52.53;101720.50;5082539;28;45478;-48
2021/07/09 05:43:03;;;;;;;;;13.50;11.25;;;;;21.93;52.44;101719.63;5064376;28;46789;-50
2021/07/09 05:45:29;;;;;;;;;13.67;12.67;;;;;21.95;52.61;101725.81;5082815;27;45611;-46
2021/07/09 05:47:56;;;;;;;;;10.00;10.00;;;;;21.97;52.62;101723.91;5077352;27;45465;-49
2021/07/09 05:50:22;;;;;;;;;12.25;12.25;;;;;22.00;52.72;101725.59;5081715;27;45417;-49
2021/07/09 05:52:48;;;;;;;;;13.33;12.33;;;;;22.03;52.57;101726.31;5081086;27;48252;-52
2021/07/09 05:55:14;;;;;;;;;10.00;9.33;;;;;22.07;52.65;101726.16;5058304;27;45367;-47
2021/07/09 05:57:40;;;;;;;;;12.25;12.25;;;;;22.12;52.58;101732.22;5081899;27;45433;-49
2021/07/09 06:00:08;;;;;;;;;11.67;10.67;;;;;22.14;52.38;101728.47;5083940;27;45338;-51
2021/07/09 06:02:34;;;;;;;;;12.33;12.33;;;;;22.16;52.05;101731.09;5081129;27;47712;-50
2021/07/09 06:04:59;;;;;;;;;11.33;10.33;;;;;22.17;51.93;101724.72;5081510;27;45440;-48
2021/07/09 06:07:25;;;;;;;;;12.67;12.33;;;;;22.20;52.15;101725.41;5060562;27;45476;-52
2021/07/09 06:09:51;;;;;;;;;11.00;10.67;;;;;22.23;52.09;101732.47;5089044;27;45616;-53
2021/07/09 06:12:16;;;;;;;;;13.00;13.00;;;;;22.25;51.90;101730.59;5062015;27;45526;-49
2021/07/09 06:14:41;;;;;;;;;15.00;11.33;;;;;22.28;52.12;101731.28;5081536;27;45335;-49
2021/07/09 06:17:07;;;;;;;;;13.00;10.00;;;;;22.31;52.33;101727.53;5085243;27;45345;-50
2021/07/09 06:19:33;;;;;;;;;11.00;11.00;;;;;22.32;51.87;101726.59;5063490;28;45370;-51
2021/07/09 06:21:58;;;;;;;;;12.00;11.00;;;;;22.35;51.87;101731.81;5063488;28;45512;-51
2021/07/09 06:24:24;;;;;;;;;12.33;11.33;;;;;22.37;51.88;101729.94;5057660;28;45311;-51
2021/07/09 06:26:50;;;;;;;;;13.00;10.33;;;;;22.39;51.40;101730.72;5067454;27;45277;-47
2021/07/09 06:29:15;;;;;;;;;11.25;11.25;;;;;22.42;51.80;101730.53;5082108;27;45342;-50
2021/07/09 06:31:41;;;;;;;;;15.00;11.75;;;;;22.44;51.57;101742.13;5081484;27;45372;-51
2021/07/09 06:34:06;;;;;;;;;12.00;12.00;;;;;22.45;51.40;101741.19;5081700;27;45517;-48
2021/07/09 06:36:32;;;;;;;;;14.00;13.75;;;;;22.47;51.50;101739.25;5063243;28;45402;-48
2021/07/09 06:38:57;;;;;;;;;16.50;13.50;;;;;22.46;51.36;101728.53;5080209;28;45243;-47
2021/07/09 06:41:23;;;;;;;;;12.00;12.00;;;;;22.49;51.75;101747.31;5081455;27;46550;-48
2021/07/09 06:43:48;;;;;;;;;12.75;12.25;;;;;22.51;51.70;101740.84;5063904;27;45627;-52
2021/07/09 06:46:14;;;;;;;;;10.50;10.50;;;;;22.56;51.35;101746.00;5074094;27;45253;-48
2021/07/09 06:48:41;;;;;;;;;12.00;11.25;;;;;22.60;51.54;101747.56;5078615;27;45443;-50
2021/07/09 06:51:07;;;;;;;;;13.25;13.00;;;;;22.62;51.10;101751.09;5062420;28;47436;-47
2021/07/09 06:53:32;;;;;;;;;11.25;10.25;;;;;22.65;51.15;101747.34;5080379;27;45979;-48
2021/07/09 06:55:58;;;;;;;;;12.50;12.50;;;;;22.68;51.47;101752.56;5081500;27;45451;-48
2021/07/09 06:58:23;;;;;;;;;20.00;18.75;;;;;22.71;51.38;101749.69;5081490;27;45551;-51
2021/07/09 07:00:49;;;;;;;;;12.00;12.00;;;;;22.74;51.23;101755.81;5080682;27;47178;-49
2021/07/09 07:03:14;;;;;;;;;11.75;11.00;;;;;22.77;50.97;101752.94;5080969;27;45280;-49
2021/07/09 07:05:40;;;;;;;;;17.25;15.75;;;;;22.81;50.69;101759.91;5081433;27;45611;-48
2021/07/09 07:08:23;;;;;;;;;13.50;12.75;;;;;22.81;50.57;101759.91;5062789;27;45386;-48
2021/07/09 07:10:51;;;;;;;;;11.25;11.25;;;;;22.80;50.41;101752.75;5080606;27;45478;-51
2021/07/09 07:13:18;;;;;;;;;11.50;10.75;;;;;22.84;50.71;101764.31;5062155;27;45484;-50
2021/07/09 07:15:44;;;;;;;;;13.75;12.75;;;;;22.89;50.61;101754.97;5080595;27;45275;-50
2021/07/09 07:18:09;;;;;;;;;12.75;12.00;;;;;22.94;50.29;101756.53;5062244;27;45370;-50
2021/07/09 07:20:37;;;;;;;;;11.50;10.75;;;;;22.97;50.75;101750.94;5061399;28;46415;-51
2021/07/09 07:23:03;;;;;;;;;12.00;12.00;;;;;23.02;50.49;101755.16;5060057;28;45759;-47
2021/07/09 07:25:28;;;;;;;;;14.25;14.25;;;;;23.06;50.24;101753.13;5080353;27;45357;-49
2021/07/09 07:27:54;;;;;;;;;14.00;14.00;;;;;23.11;50.05;101761.84;5062024;27;45275;-49
2021/07/09 07:30:19;;;;;;;;;11.00;10.00;;;;;23.11;50.17;101757.31;5079911;27;45583;-49
2021/07/09 07:32:48;;;;;;;;;15.50;12.00;;;;;23.15;50.11;101755.31;5078999;27;45716;-53
2021/07/09 07:35:13;;;;;;;;;14.25;13.25;;;;;23.15;49.33;101750.78;5079681;27;45356;-51
2021/07/09 07:37:39;;;;;;;;;16.50;16.50;;;;;23.15;49.91;101763.44;5079458;27;45574;-51
2021/07/09 07:40:06;;;;;;;;;14.00;13.00;;;;;23.18;49.66;101758.72;5059586;28;45512;-51
2021/07/09 07:42:32;;;;;;;;;13.00;13.00;;;;;23.23;49.91;101752.16;5080431;27;45908;-47
2021/07/09 07:44:57;;;;;;;;;14.25;12.75;;;;;23.27;49.24;101753.75;5078687;27;45394;-49
2021/07/09 07:47:24;;;;;;;;;12.75;12.75;;;;;23.30;49.31;101753.56;5058632;28;45369;-51
2021/07/09 07:49:50;;;;;;;;;10.00;10.00;;;;;23.30;49.01;101743.59;5079360;27;47003;-50
2021/07/09 07:52:15;;;;;;;;;11.75;11.75;;;;;23.34;48.90;101757.81;5079959;27;45586;-49
2021/07/09 07:54:41;;;;;;;;;13.50;13.50;;;;;23.35;49.19;101754.13;5079767;27;45310;-53
2021/07/09 07:57:06;;;;;;;;;13.25;11.75;;;;;23.36;49.19;101754.03;5080082;27;45526;-51
2021/07/09 07:59:32;;;;;;;;;17.00;14.50;;;;;23.40;49.03;101761.06;5079799;28;45386;-53
2021/07/09 08:01:58;;;;;;;;;12.00;12.00;;;;;23.47;48.92;101756.13;5078980;27;45715;-49
2021/07/09 08:04:23;;;;;;;;;14.00;12.50;;;;;23.53;48.77;101749.50;5061833;28;45437;-53
2021/07/09 08:06:49;;;;;;;;;11.25;11.25;;;;;23.56;48.65;101752.88;5079765;27;44885;-50
2021/07/09 08:09:15;;;;;;;;;16.25;12.75;;;;;23.59;48.67;101751.84;5079679;28;47315;-52
2021/07/09 08:11:41;;;;;;;;;11.50;11.50;;;;;23.63;48.50;101746.19;5061823;28;45409;-49
2021/07/09 08:14:07;;;;;;;;;10.50;10.50;;;;;23.67;48.52;101745.00;5080592;27;45349;-49
2021/07/09 08:16:32;;;;;;;;;14.50;13.25;;;;;23.72;48.19;101747.44;5080354;27;45297;-50
2021/07/09 08:18:58;;;;;;;;;11.75;11.75;;;;;23.75;48.07;101747.25;5062046;27;46946;-51
2021/07/09 08:21:24;;;;;;;;;15.00;13.50;;;;;23.76;48.13;101743.59;5061680;28;45873;-51
2021/07/09 08:23:50;;;;;;;;;11.75;11.25;;;;;23.77;47.76;101745.34;5080297;27;45312;-49
2021/07/09 08:26:15;;;;;;;;;12.00;12.00;;;;;23.78;48.18;101742.53;5079922;27;45521;-51
2021/07/09 08:28:41;;;;;;;;;11.50;10.25;;;;;23.81;47.81;101738.75;5079556;27;47081;-51
2021/07/09 08:31:06;;;;;;;;;9.75;9.75;;;;;23.83;47.92;101734.13;5060577;28;45299;-48
2021/07/09 08:33:32;;;;;;;;;12.25;12.25;;;;;23.87;47.66;101732.06;5080335;27;45667;-50
2021/07/09 08:35:58;;;;;;;;;9.25;9.00;;;;;23.90;47.75;101730.06;5079031;27;45568;-49
2021/07/09 08:38:23;;;;;;;;;12.00;10.75;;;;;23.92;47.47;101730.84;5078530;27;48083;-52
2021/07/09 08:40:49;;;;;;;;;11.75;8.75;;;;;23.94;47.15;101734.31;5079283;27;45439;-49
2021/07/09 08:43:15;;;;;;;;;11.50;9.50;;;;;23.97;46.70;101727.84;5080115;28;45850;-52
2021/07/09 08:45:40;;;;;;;;;7.00;6.00;;;;;23.99;46.41;101723.19;5045313;27;45367;-52
2021/07/09 08:48:09;;;;;;;;;8.25;6.50;;;;;24.01;46.51;101715.81;5061191;28;45414;-48
2021/07/09 08:50:35;;;;;;;;;7.50;7.50;;;;;24.01;46.21;101718.53;5078816;27;45386;-49
2021/07/09 08:53:01;;;;;;;;;9.00;8.00;;;;;24.03;46.37;101724.75;5079110;27;45532;-53
2021/07/09 08:55:26;;;;;;;;;6.00;6.00;;;;;24.05;46.03;101714.69;5079605;27;45353;-50
2021/07/09 08:57:52;;;;;;;;;8.75;8.75;;;;;24.11;46.13;101713.41;5079367;27;45927;-50
2021/07/09 09:00:26;;;;;;;;;7.75;6.75;;;;;24.15;46.00;101724.00;5079267;27;45428;-50
2021/07/09 09:02:54;;;;;;;;;10.75;7.75;;;;;24.19;45.75;101721.97;5079092;27;45291;-48
2021/07/09 09:05:24;;;;;;;;;11.00;9.25;;;;;24.20;46.27;101721.84;5078577;27;45380;-48
2021/07/09 09:08:03;;;;;;;;;12.25;9.25;;;;;24.26;46.11;101718.75;5078224;28;47490;-52
2021/07/09 09:10:39;;;;;;;;;10.75;10.00;;;;;24.31;46.08;101721.22;5078588;28;46020;-47
2021/07/09 09:13:16;;;;;;;;;10.25;10.25;;;;;24.35;45.86;101722.75;5079010;27;45542;-50
2021/07/09 09:16:11;;;;;;;;;7.75;7.75;;;;;24.38;45.64;101713.53;5064625;27;45465;-52
2021/07/09 09:18:45;;;;;;;;;6.75;6.75;;;;;24.40;45.86;101717.94;5080942;27;47026;-50
2021/07/09 09:21:12;;;;;;;;;8.25;8.00;;;;;24.46;45.65;101727.50;5081646;27;45793;-47
2021/07/09 09:23:59;;;;;;;;;12.00;7.25;;;;;24.49;45.69;101717.31;5060637;28;45515;-51
2021/07/09 09:26:49;;;;;;;;;11.00;10.50;;;;;24.56;45.78;101723.25;5078675;27;45573;-49
2021/07/09 09:29:36;;;;;;;;;7.25;7.25;;;;;24.62;44.92;101728.25;5064075;28;47346;-50
2021/07/09 09:32:06;;;;;;;;;5.25;5.25;;;;;24.63;44.76;101721.84;5081031;27;45705;-50
2021/07/09 09:34:38;;;;;;;;;6.00;6.00;;;;;24.65;44.33;101723.53;5064930;27;45350;-50
2021/07/09 09:37:04;;;;;;;;;7.00;5.50;;;;;24.67;44.56;101720.72;5064036;28;45698;-50
2021/07/09 09:39:31;;;;;;;;;7.25;6.75;;;;;24.73;44.65;101725.72;5079846;27;47365;-51
2021/07/09 09:42:23;;;;;;;;;8.50;7.50;;;;;24.77;44.03;101718.25;5047474;27;45315;-49
2021/07/09 09:44:59;;;;;;;;;6.50;5.00;;;;;24.79;44.59;101721.75;5062038;28;45846;-49
2021/07/09 09:47:32;;;;;;;;;6.00;6.00;;;;;24.76;43.56;101711.94;5080369;27;45308;-49
2021/07/09 09:50:01;;;;;;;;;10.50;6.75;;;;;24.75;44.15;101722.91;5081847;27;47850;-53
2021/07/09 09:52:34;;;;;;;;;6.00;6.00;;;;;24.76;44.20;101711.06;5079911;27;45349;-47
2021/07/09 09:55:11;;;;;;;;;7.00;6.00;;;;;24.79;43.84;101719.91;5060115;28;45561;-51
2021/07/09 09:57:37;;;;;;;;;5.50;5.50;;;;;24.84;44.28;101717.75;5063653;28;45742;-49
2021/07/09 10:00:27;;;;;;;;;4.00;4.00;;;;;24.88;43.78;101713.84;5081410;27;46969;-50
2021/07/09 10:02:52;;;;;;;;;8.00;8.00;;;;;24.90;43.43;101716.47;5056251;28;45853;-50
2021/07/09 10:05:18;;;;;;;;;7.00;7.00;;;;;24.91;43.67;101710.09;5063001;27;45559;-48
2021/07/09 10:07:45;;;;;;;;;2.25;2.25;;;;;24.92;43.32;101715.41;5081511;27;45317;-50
2021/07/09 10:10:12;;;;;;;;;6.25;6.25;;;;;24.94;43.61;101712.59;5077727;27;46791;-50
2021/07/09 10:12:41;;;;;;;;;4.00;4.00;;;;;24.94;43.07;101713.47;5081135;27;45419;-48
2021/07/09 10:15:07;;;;;;;;;6.25;6.25;;;;;24.90;43.50;101709.22;5060082;28;45366;-49
2021/07/09 10:17:33;;;;;;;;;9.25;9.00;;;;;24.88;43.39;101710.28;5060175;28;45259;-52
2021/07/09 10:20:00;;;;;;;;;7.00;7.00;;;;;24.88;43.44;101716.56;5059650;28;45449;-52
2021/07/09 10:22:26;;;;;;;;;7.50;7.50;;;;;24.87;43.42;101714.81;5081298;28;45240;-51
2021/07/09 10:24:54;;;;;;;;;7.75;7.00;;;;;24.88;43.67;101705.72;5080438;27;45310;-47
2021/07/09 10:27:22;;;;;;;;;8.00;8.00;;;;;24.90;43.89;101709.22;5081968;27;45807;-48
2021/07/09 10:29:50;;;;;;;;;7.00;7.00;;;;;24.91;43.50;101702.81;5080969;27;47145;-53
2021/07/09 10:32:38;;;;;;;;;6.00;6.00;;;;;24.94;43.74;101708.03;5062556;28;45972;-50
2021/07/09 10:35:07;;;;;;;;;5.67;5.67;;;;;24.96;43.47;101705.22;5081023;27;45441;-46
2021/07/09 10:37:33;;;;;;;;;4.33;4.33;;;;;25.00;43.35;101703.16;5062849;28;45475;-50
2021/07/09 10:40:15;;;;;;;;;7.00;7.00;;;;;25.08;43.27;101704.44;5080857;27;46270;-49
2021/07/09 10:42:42;;;;;;;;;7.00;7.00;;;;;25.17;43.17;101705.66;5063261;28;46222;-48
2021/07/09 10:45:21;;;;;;;;;8.25;6.75;;;;;25.24;42.71;101702.41;5078293;27;45644;-48
2021/07/09 10:47:52;;;;;;;;;5.50;5.25;;;;;25.29;42.81;101695.81;5062389;27;45405;-52
2021/07/09 10:50:33;;;;;;;;;6.00;6.00;;;;;25.29;42.33;101702.13;5080465;27;47296;-51
2021/07/09 10:53:01;;;;;;;;;7.00;7.00;;;;;25.26;42.59;101702.31;5080593;28;45281;-52
2021/07/09 10:55:27;;;;;;;;;6.75;6.75;;;;;25.21;42.23;101707.19;5045905;27;45455;-51
2021/07/09 10:58:08;;;;;;;;;8.25;7.25;;;;;25.17;42.67;101703.81;5059216;28;45719;-47
2021/07/09 11:00:50;;;;;;;;;7.25;7.25;;;;;25.13;42.50;101698.69;5062025;27;49158;-51
2021/07/09 11:03:43;;;;;;;;;5.75;5.75;;;;;25.10;42.90;101693.47;5080787;27;45799;-52
2021/07/09 11:06:20;;;;;;;;;8.00;6.50;;;;;25.11;42.54;101687.91;5059128;28;45378;-54
2021/07/09 11:08:53;;;;;;;;;6.00;5.75;;;;;25.15;43.04;101686.72;5078035;27;45256;-52
2021/07/09 11:11:28;;;;;;;;;5.75;5.75;;;;;25.22;42.58;101681.75;5080374;27;45415;-50
2021/07/09 11:13:58;;;;;;;;;5.00;5.00;;;;;25.26;42.19;101679.69;5058792;28;45473;-51
2021/07/09 11:16:27;;;;;;;;;6.50;6.50;;;;;25.29;42.61;101671.38;5059753;28;45394;-52
2021/07/09 11:19:04;;;;;;;;;5.50;5.50;;;;;25.33;42.27;101664.75;5058575;28;45531;-51
2021/07/09 11:21:30;;;;;;;;;8.25;8.25;;;;;25.41;42.46;101659.63;5079385;27;48120;-52